createdAt,value
2022-10-17T00:01:14.982Z,97.40
2022-10-17T00:03:43.321Z,97.40
2022-10-17T00:06:14.273Z,97.40
2022-10-17T00:08:45.014Z,97.40
2022-10-17T00:11:18.045Z,97.40
2022-10-17T00:13:48.042Z,97.40
2022-10-17T00:16:19.315Z,97.40
2022-10-17T00:18:47.394Z,97.40
2022-10-17T00:21:19.938Z,97.40
2022-10-17T00:23:48.668Z,97.40
2022-10-17T00:26:17.968Z,97.40
2022-10-17T00:28:49.274Z,97.40
2022-10-17T00:31:20.150Z,97.40
2022-10-17T00:33:49.011Z,97.40
2022-10-17T00:36:20.111Z,97.40
2022-10-17T00:38:51.926Z,97.40
2022-10-17T00:41:24.331Z,97.40
2022-10-17T00:44:00.932Z,97.40
2022-10-17T00:46:31.702Z,97.40
2022-10-17T00:49:04.690Z,97.40
2022-10-17T00:51:38.198Z,97.40
2022-10-17T00:54:07.600Z,97.40
2022-10-17T00:56:35.790Z,97.40
2022-10-17T01:01:35.086Z,97.40
2022-10-17T01:04:03.206Z,97.40
2022-10-17T01:06:31.303Z,97.40
2022-10-17T01:08:59.670Z,97.40
2022-10-17T01:11:39.408Z,97.40
2022-10-17T01:14:17.351Z,97.40
2022-10-17T01:16:54.616Z,97.40
2022-10-17T01:19:52.060Z,97.40
2022-10-17T01:22:28.488Z,97.40
2022-10-17T01:25:18.315Z,97.40
2022-10-17T01:28:01.380Z,97.40
2022-10-17T01:30:59.960Z,97.40
2022-10-17T01:33:39.819Z,97.40
2022-10-17T01:36:13.729Z,97.40
2022-10-17T01:38:49.665Z,97.40
2022-10-17T01:41:31.169Z,97.40
2022-10-17T01:44:05.882Z,97.40
2022-10-17T01:46:38.607Z,97.40
2022-10-17T01:49:10.296Z,97.40
2022-10-17T01:51:44.007Z,97.40
2022-10-17T01:54:16.789Z,97.40
2022-10-17T01:56:47.493Z,97.40
2022-10-17T01:59:19.507Z,97.40
2022-10-17T02:01:52.905Z,97.40
2022-10-17T02:04:21.583Z,97.40
2022-10-17T02:06:49.823Z,97.40
2022-10-17T02:09:21.608Z,97.40
2022-10-17T02:12:09.930Z,97.40
2022-10-17T02:14:50.447Z,97.40
2022-10-17T02:17:34.364Z,97.40
2022-10-17T02:20:11.782Z,97.40
2022-10-17T02:22:49.765Z,97.40
2022-10-17T02:25:28.805Z,97.40
2022-10-17T02:28:07.595Z,97.40
2022-10-17T02:30:42.615Z,97.40
2022-10-17T02:33:17.502Z,97.40
2022-10-17T02:35:51.712Z,97.40
2022-10-17T02:38:22.291Z,97.40
2022-10-17T02:40:53.011Z,97.40
2022-10-17T02:43:22.348Z,97.40
2022-10-17T02:45:51.579Z,97.40
2022-10-17T02:48:29.198Z,97.40
2022-10-17T02:51:06.552Z,97.40
2022-10-17T02:53:44.396Z,97.40
2022-10-17T02:56:19.456Z,97.40
2022-10-17T02:58:52.833Z,97.40
2022-10-17T03:01:21.903Z,97.40
2022-10-17T03:03:51.459Z,97.40
2022-10-17T03:06:19.562Z,97.40
2022-10-17T03:08:47.789Z,97.40
2022-10-17T03:11:16.118Z,97.40
2022-10-17T03:13:44.225Z,97.40
2022-10-17T03:16:12.342Z,97.40
2022-10-17T03:18:40.575Z,97.40
2022-10-17T03:21:10.860Z,97.40
2022-10-17T03:23:39.264Z,97.40
2022-10-17T03:26:09.127Z,97.40
2022-10-17T03:28:37.692Z,97.40
2022-10-17T03:31:10.389Z,97.40
2022-10-17T03:33:40.054Z,97.40
2022-10-17T03:36:13.868Z,97.40
2022-10-17T03:38:42.712Z,97.40
2022-10-17T03:41:11.564Z,97.40
2022-10-17T03:43:40.838Z,97.40
2022-10-17T03:46:09.760Z,97.40
2022-10-17T03:48:38.733Z,97.40
2022-10-17T03:51:11.194Z,97.40
2022-10-17T03:53:45.309Z,97.40
2022-10-17T03:56:16.690Z,97.40
2022-10-17T03:58:47.030Z,97.40
2022-10-17T04:01:18.804Z,97.40
2022-10-17T04:03:52.135Z,97.40
2022-10-17T04:06:22.448Z,97.40
2022-10-17T04:08:51.271Z,97.40
2022-10-17T04:11:34.824Z,97.40
2022-10-17T04:14:03.955Z,97.40
2022-10-17T04:16:33.254Z,97.40
2022-10-17T04:19:04.518Z,97.40
2022-10-17T04:21:40.219Z,97.40
2022-10-17T04:24:12.616Z,97.40
2022-10-17T04:26:52.076Z,97.40
2022-10-17T04:29:22.192Z,97.40
2022-10-17T04:31:53.178Z,97.40
2022-10-17T04:34:29.498Z,97.40
2022-10-17T04:36:59.452Z,97.40
2022-10-17T04:39:28.617Z,97.40
2022-10-17T04:41:57.132Z,97.40
2022-10-17T04:44:25.251Z,97.40
2022-10-17T04:46:54.258Z,97.40
2022-10-17T04:49:24.187Z,97.40
2022-10-17T04:51:55.565Z,97.40
2022-10-17T04:54:38.278Z,97.40
2022-10-17T04:57:10.233Z,97.40
2022-10-17T04:59:40.229Z,97.40
2022-10-17T05:02:27.310Z,97.40
2022-10-17T05:04:56.448Z,97.40
2022-10-17T05:07:25.625Z,97.40
2022-10-17T05:10:00.999Z,97.40
2022-10-17T05:12:30.658Z,97.40
2022-10-17T05:15:00.142Z,97.40
2022-10-17T05:17:29.552Z,97.40
2022-10-17T05:19:57.671Z,97.40
2022-10-17T05:22:25.904Z,97.40
2022-10-17T05:24:54.067Z,97.40
2022-10-17T05:27:23.520Z,97.40
2022-10-17T05:29:51.602Z,97.40
2022-10-17T05:32:26.017Z,97.40
2022-10-17T05:34:54.260Z,97.40
2022-10-17T05:37:24.521Z,97.40
2022-10-17T05:39:55.645Z,97.40
2022-10-17T05:42:25.657Z,97.40
2022-10-17T05:44:53.897Z,97.40
2022-10-17T05:47:22.428Z,97.40
2022-10-17T05:49:52.454Z,97.40
2022-10-17T05:52:27.132Z,97.40
2022-10-17T05:55:14.611Z,97.40
2022-10-17T05:57:44.136Z,97.40
2022-10-17T06:00:16.569Z,97.40
2022-10-17T06:02:52.059Z,97.40
2022-10-17T06:05:22.945Z,97.40
2022-10-17T06:07:52.513Z,97.40
2022-10-17T06:10:21.708Z,97.40
2022-10-17T06:12:51.448Z,97.40
2022-10-17T06:15:20.308Z,97.40
2022-10-17T06:17:54.590Z,97.40
2022-10-17T06:20:22.680Z,97.40
2022-10-17T06:22:51.057Z,97.40
2022-10-17T06:25:29.100Z,97.40
2022-10-17T06:27:59.213Z,97.40
2022-10-17T06:30:27.886Z,97.40
2022-10-17T06:32:56.181Z,97.40
2022-10-17T06:35:24.785Z,97.40
2022-10-17T06:37:52.961Z,97.40
2022-10-17T06:40:22.787Z,97.40
2022-10-17T06:42:51.070Z,97.40
2022-10-17T06:45:41.427Z,97.40
2022-10-17T06:48:17.214Z,97.40
2022-10-17T06:50:53.305Z,97.40
2022-10-17T06:53:29.572Z,97.40
2022-10-17T06:56:27.160Z,97.40
2022-10-17T06:59:11.471Z,97.40
2022-10-17T07:01:46.250Z,97.40
2022-10-17T07:04:15.957Z,97.40
2022-10-17T07:06:44.731Z,97.40
2022-10-17T07:09:17.975Z,97.40
2022-10-17T07:11:46.209Z,97.40
2022-10-17T07:14:18.488Z,97.40
2022-10-17T07:16:49.932Z,97.40
2022-10-17T07:19:23.964Z,97.40
2022-10-17T07:21:52.603Z,97.40
2022-10-17T07:24:20.947Z,97.40
2022-10-17T07:26:57.789Z,97.40
2022-10-17T07:29:26.837Z,97.40
2022-10-17T07:32:08.441Z,94.40
2022-10-17T07:34:36.866Z,94.20
2022-10-17T07:37:09.842Z,95.10
2022-10-17T07:39:40.236Z,95.70
2022-10-17T07:42:08.835Z,92.30
2022-10-17T07:44:37.010Z,91.90
2022-10-17T07:47:07.400Z,90.10
2022-10-17T07:49:42.348Z,90.40
2022-10-17T07:52:11.653Z,92.60
2022-10-17T07:54:39.872Z,86.20
2022-10-17T07:57:08.796Z,86.90
2022-10-17T07:59:39.196Z,90.10
2022-10-17T08:02:10.433Z,92.30
2022-10-17T08:04:39.097Z,89.70
2022-10-17T08:07:19.728Z,79.30
2022-10-17T08:09:50.096Z,88.20
2022-10-17T08:12:18.922Z,81.00
2022-10-17T08:14:48.083Z,81.40
2022-10-17T08:17:17.505Z,70.70
2022-10-17T08:19:45.589Z,72.60
2022-10-17T08:22:13.739Z,76.90
2022-10-17T08:24:42.732Z,72.00
2022-10-17T08:27:13.028Z,71.70
2022-10-17T08:29:42.008Z,79.10
2022-10-17T08:32:10.462Z,78.40
2022-10-17T08:34:39.962Z,68.10
2022-10-17T08:37:08.372Z,70.50
2022-10-17T08:39:36.451Z,71.70
2022-10-17T08:42:24.120Z,75.40
2022-10-17T08:45:03.110Z,72.20
2022-10-17T08:47:40.043Z,69.20
2022-10-17T08:50:17.029Z,70.90
2022-10-17T08:52:50.514Z,69.60
2022-10-17T08:55:27.841Z,66.60
2022-10-17T08:57:56.080Z,62.50
2022-10-17T09:00:24.541Z,62.50
2022-10-17T09:03:10.948Z,56.90
2022-10-17T09:05:50.502Z,55.80
2022-10-17T09:08:41.883Z,58.10
2022-10-17T09:11:28.729Z,56.40
2022-10-17T09:14:09.360Z,58.10
2022-10-17T09:17:01.715Z,56.90
2022-10-17T09:19:35.431Z,54.90
2022-10-17T09:22:10.858Z,52.00
2022-10-17T09:24:44.445Z,54.60
2022-10-17T09:27:24.756Z,50.00
2022-10-17T09:30:13.056Z,53.20
2022-10-17T09:32:47.538Z,54.90
2022-10-17T09:35:16.699Z,52.30
2022-10-17T09:37:47.108Z,52.60
2022-10-17T09:40:25.436Z,50.30
2022-10-17T09:42:53.823Z,50.80
2022-10-17T09:45:26.796Z,52.50
2022-10-17T09:48:02.439Z,53.20
2022-10-17T09:50:34.436Z,52.00
2022-10-17T09:53:12.982Z,52.90
2022-10-17T09:55:44.593Z,53.40
2022-10-17T09:58:13.268Z,53.50
2022-10-17T10:00:43.727Z,54.20
2022-10-17T10:03:24.073Z,53.90
2022-10-17T10:06:03.076Z,51.70
2022-10-17T10:08:35.810Z,52.30
2022-10-17T10:11:07.908Z,52.20
2022-10-17T10:13:37.708Z,51.70
2022-10-17T10:16:20.511Z,51.30
2022-10-17T10:18:51.009Z,52.00
2022-10-17T10:21:21.522Z,53.20
2022-10-17T10:26:48.680Z,52.00
2022-10-17T10:29:30.729Z,47.00
2022-10-17T10:32:09.512Z,47.90
2022-10-17T10:34:42.254Z,48.20
2022-10-17T10:37:20.633Z,49.00
2022-10-17T10:39:51.310Z,47.80
2022-10-17T10:42:27.655Z,46.50
2022-10-17T10:45:02.570Z,47.00
2022-10-17T10:47:32.651Z,44.10
2022-10-17T10:50:31.803Z,45.80
2022-10-17T10:53:34.203Z,44.30
2022-10-17T10:56:10.754Z,41.40
2022-10-17T10:58:52.606Z,39.50
2022-10-17T11:01:30.466Z,41.20
2022-10-17T11:04:25.952Z,39.20
2022-10-17T11:07:01.435Z,42.10
2022-10-17T11:09:48.915Z,39.70
2022-10-17T11:12:23.164Z,41.20
2022-10-17T11:14:57.283Z,41.70
2022-10-17T11:17:36.191Z,43.80
2022-10-17T11:20:15.323Z,42.90
2022-10-17T11:22:48.112Z,44.60
2022-10-17T11:25:32.448Z,43.20
2022-10-17T11:28:04.876Z,40.30
2022-10-17T11:30:45.800Z,38.20
2022-10-17T11:33:23.310Z,36.60
2022-10-17T11:35:58.303Z,38.50
2022-10-17T11:38:43.918Z,37.60
2022-10-17T11:41:16.565Z,37.60
2022-10-17T11:43:51.467Z,33.40
2022-10-17T11:46:25.119Z,36.80
2022-10-17T11:49:06.167Z,38.80
2022-10-17T11:52:01.469Z,36.20
2022-10-17T11:54:34.985Z,32.80
2022-10-17T11:57:18.998Z,35.10
2022-10-17T12:00:05.022Z,33.90
2022-10-17T12:02:52.780Z,32.40
2022-10-17T12:05:27.370Z,34.70
2022-10-17T12:08:02.072Z,36.60
2022-10-17T12:10:47.245Z,32.40
2022-10-17T12:13:55.065Z,33.30
2022-10-17T12:16:50.730Z,31.30
2022-10-17T12:19:33.895Z,34.50
2022-10-17T12:22:07.970Z,32.20
2022-10-17T12:24:43.010Z,30.90
2022-10-17T12:27:36.880Z,32.20
2022-10-17T12:30:17.660Z,33.70
2022-10-17T12:33:07.331Z,32.50
2022-10-17T12:35:39.908Z,33.00
2022-10-17T12:38:23.939Z,33.70
2022-10-17T12:41:00.444Z,32.70
2022-10-17T12:43:58.723Z,36.20
2022-10-17T12:46:49.623Z,35.40
2022-10-17T12:49:38.605Z,36.50
2022-10-17T12:52:55.154Z,38.00
2022-10-17T12:55:26.804Z,37.30
2022-10-17T12:57:58.627Z,36.80
2022-10-17T13:00:37.041Z,38.80
2022-10-17T13:03:12.654Z,38.20
2022-10-17T13:05:47.159Z,36.20
2022-10-17T13:08:23.704Z,35.30
2022-10-17T13:10:53.838Z,36.00
2022-10-17T13:13:28.608Z,37.70
2022-10-17T13:15:56.951Z,36.50
2022-10-17T13:18:27.478Z,38.00
2022-10-17T13:20:59.041Z,38.00
2022-10-17T13:23:34.232Z,38.60
2022-10-17T13:26:13.134Z,39.50
2022-10-17T13:28:41.469Z,40.00
2022-10-17T13:31:28.619Z,40.50
2022-10-17T13:33:58.902Z,40.80
2022-10-17T13:36:28.597Z,40.30
2022-10-17T13:38:59.990Z,40.90
2022-10-17T13:41:35.902Z,42.00
2022-10-17T13:44:12.830Z,41.10
2022-10-17T13:46:41.307Z,42.40
2022-10-17T13:49:20.682Z,42.00
2022-10-17T13:51:52.732Z,42.30
2022-10-17T13:54:37.283Z,44.00
2022-10-17T13:57:07.289Z,44.30
2022-10-17T13:59:40.529Z,44.40
2022-10-17T14:02:16.563Z,45.50
2022-10-17T14:05:14.956Z,45.90
2022-10-17T14:08:05.748Z,46.80
2022-10-17T14:10:33.232Z,45.80
2022-10-17T14:13:04.193Z,46.80
2022-10-17T14:15:37.417Z,46.80
2022-10-17T14:18:09.131Z,47.20
2022-10-17T14:21:19.841Z,47.80
2022-10-17T14:23:39.491Z,47.90
2022-10-17T14:26:14.065Z,47.20
2022-10-17T14:28:44.767Z,47.90
2022-10-17T14:31:21.926Z,48.20
2022-10-17T14:33:52.453Z,48.80
2022-10-17T14:36:21.731Z,48.10
2022-10-17T14:38:52.957Z,48.40
2022-10-17T14:41:43.746Z,49.70
2022-10-17T14:44:21.463Z,49.30
2022-10-17T14:46:54.670Z,50.30
2022-10-17T14:49:33.362Z,51.40
2022-10-17T14:52:27.527Z,51.90
2022-10-17T14:54:55.766Z,51.70
2022-10-17T14:57:35.421Z,51.70
2022-10-17T15:00:03.864Z,51.70
2022-10-17T15:02:32.280Z,52.60
2022-10-17T15:05:00.566Z,53.40
2022-10-17T15:07:29.415Z,55.40
2022-10-17T15:09:57.506Z,55.80
2022-10-17T15:12:27.633Z,56.40
2022-10-17T15:14:55.882Z,57.50
2022-10-17T15:17:26.983Z,56.40
2022-10-17T15:19:55.407Z,57.70
2022-10-17T15:22:23.898Z,57.40
2022-10-17T15:24:52.060Z,58.30
2022-10-17T15:27:22.650Z,59.30
2022-10-17T15:29:53.013Z,60.50
2022-10-17T15:32:21.195Z,60.90
2022-10-17T15:34:49.315Z,67.60
2022-10-17T15:37:22.210Z,69.80
2022-10-17T15:39:54.231Z,70.20
2022-10-17T15:42:24.057Z,68.90
2022-10-17T15:44:53.556Z,70.70
2022-10-17T15:47:26.878Z,70.90
2022-10-17T15:49:56.436Z,71.80
2022-10-17T15:52:25.684Z,72.40
2022-10-17T15:54:54.349Z,75.40
2022-10-17T15:57:26.878Z,81.70
2022-10-17T15:59:58.615Z,81.00
2022-10-17T16:02:27.255Z,82.10
2022-10-17T16:04:55.330Z,80.80
2022-10-17T16:07:23.668Z,81.40
2022-10-17T16:09:51.999Z,86.00
2022-10-17T16:12:31.036Z,90.50
2022-10-17T16:15:00.822Z,91.50
2022-10-17T16:17:29.919Z,91.30
2022-10-17T16:19:58.231Z,92.40
2022-10-17T16:22:32.429Z,92.30
2022-10-17T16:25:07.879Z,92.70
2022-10-17T16:27:36.947Z,92.90
2022-10-17T16:30:09.150Z,95.00
2022-10-17T16:32:37.422Z,97.40
2022-10-17T16:35:06.648Z,97.40
2022-10-17T16:37:35.717Z,97.40
2022-10-17T16:40:04.403Z,97.40
2022-10-17T16:42:32.822Z,97.40
2022-10-17T16:45:01.165Z,97.40
2022-10-17T16:47:30.605Z,97.40
2022-10-17T16:49:58.674Z,97.40
2022-10-17T16:52:27.056Z,97.40
2022-10-17T16:54:55.312Z,97.40
2022-10-17T16:57:23.462Z,97.40
2022-10-17T16:59:52.058Z,97.40
2022-10-17T17:02:21.378Z,97.40
2022-10-17T17:04:51.094Z,97.40
2022-10-17T17:07:20.636Z,97.40
2022-10-17T17:09:49.075Z,97.40
2022-10-17T17:12:17.926Z,97.40
2022-10-17T17:14:46.289Z,97.40
2022-10-17T17:17:24.436Z,97.40
2022-10-17T17:20:04.452Z,97.40
2022-10-17T17:22:32.565Z,97.40
2022-10-17T17:25:00.681Z,97.40
2022-10-17T17:27:29.727Z,97.40
2022-10-17T17:29:58.004Z,97.40
2022-10-17T17:32:26.153Z,97.40
2022-10-17T17:34:54.423Z,97.40
2022-10-17T17:37:24.133Z,97.40
2022-10-17T17:39:52.219Z,97.40
2022-10-17T17:42:20.546Z,97.40
2022-10-17T17:44:49.634Z,97.40
2022-10-17T17:47:17.781Z,97.40
2022-10-17T17:49:45.974Z,97.40
2022-10-17T17:52:14.061Z,97.40
2022-10-17T17:54:43.651Z,97.40
2022-10-17T17:57:12.388Z,97.40
2022-10-17T17:59:41.445Z,97.40
2022-10-17T18:02:10.894Z,97.40
2022-10-17T18:04:39.155Z,97.40
2022-10-17T18:07:07.268Z,97.40
2022-10-17T18:09:35.431Z,97.40
2022-10-17T18:12:05.415Z,97.40
2022-10-17T18:14:33.517Z,97.40
2022-10-17T18:17:01.540Z,97.40
2022-10-17T18:19:29.680Z,97.40
2022-10-17T18:21:57.765Z,97.40
2022-10-17T18:24:26.154Z,97.40
2022-10-17T18:26:59.494Z,97.40
2022-10-17T18:29:29.375Z,97.40
2022-10-17T18:31:57.644Z,97.40
2022-10-17T18:34:27.132Z,97.40
2022-10-17T18:36:55.305Z,97.40
2022-10-17T18:39:23.640Z,97.40
2022-10-17T18:41:51.708Z,97.40
2022-10-17T18:44:19.796Z,97.40
2022-10-17T18:46:49.918Z,97.40
2022-10-17T18:49:23.123Z,97.40
2022-10-17T18:51:51.602Z,97.40
2022-10-17T18:54:24.300Z,97.40
2022-10-17T18:56:55.307Z,97.40
2022-10-17T18:59:23.685Z,97.40
2022-10-17T19:01:53.215Z,97.40
2022-10-17T19:04:21.359Z,97.40
2022-10-17T19:06:49.683Z,97.40
2022-10-17T19:09:18.467Z,97.40
2022-10-17T19:11:46.703Z,97.40
2022-10-17T19:14:14.791Z,97.40
2022-10-17T19:16:45.654Z,97.40
2022-10-17T19:19:18.324Z,97.40
2022-10-17T19:21:46.992Z,97.40
2022-10-17T19:24:17.919Z,97.40
2022-10-17T19:26:50.133Z,97.40
2022-10-17T19:29:19.338Z,97.40
2022-10-17T19:31:48.520Z,97.40
2022-10-17T19:34:18.532Z,97.40
2022-10-17T19:36:47.110Z,97.40
2022-10-17T19:39:17.981Z,97.40
2022-10-17T19:41:48.260Z,97.40
2022-10-17T19:44:17.307Z,97.40
2022-10-17T19:46:46.712Z,97.40
2022-10-17T19:49:15.461Z,97.40
2022-10-17T19:51:45.429Z,97.40
2022-10-17T19:54:15.006Z,97.40
2022-10-17T19:56:43.457Z,97.40
2022-10-17T19:59:15.956Z,97.40
2022-10-17T20:01:45.252Z,97.40
2022-10-17T20:04:14.192Z,97.40
2022-10-17T20:06:44.324Z,97.40
2022-10-17T20:09:16.713Z,97.40
2022-10-17T20:11:46.101Z,97.40
2022-10-17T20:14:14.266Z,97.40
2022-10-17T20:16:44.573Z,97.40
2022-10-17T20:19:14.525Z,97.40
2022-10-17T20:21:45.024Z,97.40
2022-10-17T20:24:15.624Z,97.40
2022-10-17T20:26:44.282Z,97.40
2022-10-17T20:29:16.754Z,97.40
2022-10-17T20:31:47.163Z,97.40
2022-10-17T20:34:17.521Z,97.40
2022-10-17T20:36:47.604Z,97.40
2022-10-17T20:39:18.136Z,97.40
2022-10-17T20:41:47.125Z,97.40
2022-10-17T20:44:15.388Z,97.40
2022-10-17T20:46:57.373Z,97.40
2022-10-17T20:49:29.127Z,97.40
2022-10-17T20:51:59.073Z,97.40
2022-10-17T20:54:28.230Z,97.40
2022-10-17T20:56:59.786Z,97.40
2022-10-17T20:59:30.730Z,97.40
2022-10-17T21:01:58.941Z,97.40
2022-10-17T21:04:45.521Z,97.40
2022-10-17T21:07:16.309Z,97.40
2022-10-17T21:09:46.224Z,97.40
2022-10-17T21:12:21.711Z,97.40
2022-10-17T21:14:59.357Z,97.40
2022-10-17T21:17:27.542Z,97.40
2022-10-17T21:19:56.448Z,97.40
2022-10-17T21:22:26.080Z,97.40
2022-10-17T21:24:54.192Z,97.40
2022-10-17T21:27:22.300Z,97.40
2022-10-17T21:29:50.515Z,97.40
2022-10-17T21:32:31.971Z,97.40
2022-10-17T21:35:08.255Z,97.40
2022-10-17T21:37:37.682Z,97.40
2022-10-17T21:40:07.034Z,97.40
2022-10-17T21:42:35.096Z,97.40
2022-10-17T21:45:10.506Z,97.40
2022-10-17T21:47:55.072Z,97.40
2022-10-17T21:50:32.312Z,97.40
2022-10-17T21:53:01.747Z,97.40
2022-10-17T21:55:29.880Z,97.40
2022-10-17T21:57:57.940Z,97.40
2022-10-17T22:00:26.016Z,97.40
2022-10-17T22:02:54.067Z,97.40
2022-10-17T22:05:22.211Z,97.40
2022-10-17T22:07:50.336Z,97.40
2022-10-17T22:10:19.920Z,97.40
2022-10-17T22:12:48.002Z,97.40
2022-10-17T22:15:16.225Z,97.40
2022-10-17T22:17:44.465Z,97.40
2022-10-17T22:20:12.643Z,97.40
2022-10-17T22:22:40.760Z,97.40
2022-10-17T22:25:10.066Z,97.40
2022-10-17T22:27:39.601Z,97.40
2022-10-17T22:30:09.541Z,97.40
2022-10-17T22:32:37.639Z,97.40
2022-10-17T22:35:07.035Z,97.40
2022-10-17T22:37:35.160Z,97.40
2022-10-17T22:40:03.403Z,97.40
2022-10-17T22:42:34.340Z,97.40
2022-10-17T22:45:04.437Z,97.40
2022-10-17T22:47:32.863Z,97.40
2022-10-17T22:50:01.300Z,97.40
2022-10-17T22:52:30.017Z,97.40
2022-10-17T22:54:58.266Z,97.40
2022-10-17T22:57:26.379Z,97.40
2022-10-17T22:59:54.423Z,97.40
2022-10-17T23:02:23.948Z,97.40
2022-10-17T23:04:52.019Z,97.40
2022-10-17T23:07:20.090Z,97.40
2022-10-17T23:09:48.133Z,97.40
2022-10-17T23:12:17.938Z,97.40
2022-10-17T23:14:55.086Z,97.40
2022-10-17T23:17:24.515Z,97.40
2022-10-17T23:19:55.521Z,97.40
2022-10-17T23:22:25.834Z,97.40
2022-10-17T23:24:53.908Z,97.40
2022-10-17T23:27:22.177Z,97.40
2022-10-17T23:29:50.344Z,97.40
2022-10-17T23:32:20.742Z,97.40
2022-10-17T23:34:50.280Z,97.40
2022-10-17T23:37:19.196Z,97.40
2022-10-17T23:39:47.330Z,97.40
2022-10-17T23:42:15.410Z,97.40
2022-10-17T23:44:43.459Z,97.40
2022-10-17T23:47:11.635Z,97.40
2022-10-17T23:49:41.790Z,97.40
2022-10-17T23:52:11.271Z,97.40
2022-10-17T23:54:39.339Z,97.40
2022-10-17T23:57:07.454Z,97.40
2022-10-17T23:59:35.533Z,97.40
